Time;durP1;ratioP1;P1;durP2;ratioP2;P2;SDS_P1;SDS_P2;PMS_P1;PMS_P2;Temp;Humidity;BMP_temperature;BMP_pressure;BME280_temperature;BME280_humidity;BME280_pressure;Samples;Min_cycle;Max_cycle;Signal;HPM_P1;HPM_P2
2021/12/22 00:00:26;;;;;;;109.50;40.23;;;-3275.40;69.70;;;;;;5057036;28;19908;-86
2021/12/22 00:02:52;;;;;;;113.80;43.07;;;-3275.40;69.60;;;;;;5057371;28;20020;-86
2021/12/22 00:05:20;;;;;;;;;;;-3275.40;69.70;;;;;;5056834;28;20028;-85
2021/12/22 00:07:49;;;;;;;86.87;34.23;;;-3275.40;69.80;;;;;;5073891;28;20288;-86
2021/12/22 00:10:15;;;;;;;105.13;40.90;;;-3275.40;69.70;;;;;;5055349;28;20039;-85
2021/12/22 00:12:41;;;;;;;113.20;41.07;;;-3275.30;69.90;;;;;;5057408;28;20021;-86
2021/12/22 00:15:07;;;;;;;;;;;-3275.30;70.00;;;;;;5057726;28;20017;-85
2021/12/22 00:17:32;;;;;;;113.87;41.13;;;-3275.30;70.10;;;;;;5056871;28;19913;-85
2021/12/22 00:19:58;;;;;;;;;;;-3275.40;69.90;;;;;;5058726;28;20082;-85
2021/12/22 00:22:24;;;;;;;156.37;49.50;;;-3275.40;70.10;;;;;;5057429;28;19915;-85
2021/12/22 00:24:50;;;;;;;;;;;-3275.50;69.90;;;;;;5055958;28;20087;-85
2021/12/22 00:27:16;;;;;;;141.90;48.20;;;-3275.50;70.10;;;;;;5056253;28;19935;-85
2021/12/22 00:29:45;;;;;;;;;;;-3275.50;69.90;;;;;;5055571;28;20013;-85
2021/12/22 00:32:14;;;;;;;129.40;45.70;;;-3275.50;70.00;;;;;;5055629;28;19915;-86
2021/12/22 00:34:49;;;;;;;141.33;48.43;;;-3275.50;69.90;;;;;;5056671;28;20457;-86
2021/12/22 00:37:17;;;;;;;127.67;47.47;;;-3275.50;70.00;;;;;;5057240;28;20539;-86
2021/12/22 00:39:44;;;;;;;134.50;49.23;;;-3275.50;70.20;;;;;;5057102;28;20036;-86
2021/12/22 00:42:11;;;;;;;127.30;46.83;;;-3275.50;70.20;;;;;;5057468;28;20016;-85
2021/12/22 00:44:46;;;;;;;133.47;46.70;;;-3275.50;70.30;;;;;;5056566;28;20059;-84
2021/12/22 00:47:14;;;;;;;113.20;39.00;;;-3275.50;70.40;;;;;;5081636;28;20492;-85
2021/12/22 00:49:39;;;;;;;85.90;32.27;;;-3275.50;70.40;;;;;;5105923;28;20261;-85
2021/12/22 00:52:05;;;;;;;;;;;-3275.50;70.50;;;;;;5103642;28;20460;-85
2021/12/22 00:54:31;;;;;;;108.83;37.70;;;-3275.50;70.60;;;;;;5124456;28;19922;-84
2021/12/22 00:57:03;;;;;;;;;;;-3275.50;70.40;;;;;;5101375;28;20023;-86
2021/12/22 00:59:29;;;;;;;114.63;40.97;;;-3275.50;70.50;;;;;;5097556;28;19968;-85
2021/12/22 01:01:55;;;;;;;85.60;33.37;;;-3275.50;70.40;;;;;;5093390;28;20032;-85
2021/12/22 01:04:21;;;;;;;;;;;-3275.40;70.60;;;;;;5106864;28;20031;-84
2021/12/22 01:06:46;;;;;;;113.73;41.50;;;-3275.40;70.70;;;;;;5107287;28;19968;-85
2021/12/22 01:09:12;;;;;;;;;;;-3275.40;70.70;;;;;;5102070;28;20069;-84
2021/12/22 01:11:37;;;;;;;95.93;36.50;;;-3275.40;70.90;;;;;;5105459;28;20003;-84
2021/12/22 01:14:03;;;;;;;;;;;-3275.40;70.90;;;;;;5097611;28;20056;-85
2021/12/22 01:16:29;;;;;;;77.30;29.23;;;-3275.30;71.00;;;;;;5122444;28;19908;-85
2021/12/22 01:18:57;;;;;;;;;;;-3275.40;71.00;;;;;;5120284;27;20076;-85
2021/12/22 01:21:32;;;;;;;95.57;37.10;;;-3275.30;71.20;;;;;;5102265;28;19908;-84
2021/12/22 01:24:28;;;;;;;128.97;46.03;;;-3275.40;71.20;;;;;;5101847;27;20050;-85
2021/12/22 01:27:03;;;;;;;102.47;38.37;;;-3275.30;71.30;;;;;;5104422;28;20115;-84
2021/12/22 01:29:28;;;;;;;112.87;41.00;;;-3275.40;71.40;;;;;;5110017;27;20028;-85
2021/12/22 01:31:56;;;;;;;;;;;-3275.40;71.50;;;;;;5117491;27;20585;-85
2021/12/22 01:34:22;;;;;;;139.63;49.27;;;-3275.40;71.60;;;;;;5097256;28;19915;-85
2021/12/22 01:36:47;;;;;;;;;;;-3275.30;71.40;;;;;;5100997;28;20016;-85
2021/12/22 01:39:13;;;;;;;108.73;43.63;;;-3275.40;71.50;;;;;;5114776;27;19907;-85
2021/12/22 01:41:39;;;;;;;126.55;49.95;;;-3275.40;71.40;;;;;;5100128;28;20077;-86
2021/12/22 01:44:05;;;;;;;;;;;-3275.40;71.50;;;;;;5103010;27;20113;-87
2021/12/22 01:49:10;;;;;;;113.43;43.30;;;-3275.50;71.60;;;;;;5109897;28;19915;-86
2021/12/22 01:49:49;;;;;;;74.63;27.47;;;-3275.40;71.40;;;;;;5118973;27;20119;-86
2021/12/22 01:52:16;;;;;;;133.53;48.90;;;-3275.50;71.60;;;;;;5123505;27;20042;-86
2021/12/22 01:55:02;;;;;;;133.70;48.87;;;-3275.50;71.70;;;;;;5113699;27;20584;-86
2021/12/22 01:57:28;;;;;;;143.70;47.73;;;-3275.40;71.80;;;;;;5102719;28;20118;-85
2021/12/22 01:59:53;;;;;;;;;;;-3275.50;71.90;;;;;;5099951;28;20048;-85
2021/12/22 02:02:19;;;;;;;122.03;45.17;;;-3275.50;72.00;;;;;;5104452;27;19907;-87
2021/12/22 02:04:45;;;;;;;;;;;-3275.50;71.80;;;;;;5104781;28;20373;-86
2021/12/22 02:07:11;;;;;;;139.87;51.63;;;-3275.50;72.00;;;;;;5100742;28;19918;-86
2021/12/22 02:12:40;;;;;;;156.03;54.97;;;-3275.50;72.00;;;;;;5088755;27;20038;-85
2021/12/22 02:15:09;;;;;;;141.13;50.80;;;-3275.50;72.00;;;;;;5101523;28;20020;-86
2021/12/22 02:17:36;;;;;;;144.50;50.17;;;-3275.60;72.10;;;;;;5102536;28;20091;-84
2021/12/22 02:20:02;;;;;;;124.10;47.03;;;-3275.50;72.20;;;;;;5101231;27;20024;-85
2021/12/22 02:22:28;;;;;;;148.17;52.63;;;-3275.60;72.20;;;;;;5099773;28;20020;-84
2021/12/22 02:25:01;;;;;;;;;;;-3275.60;72.20;;;;;;5103822;27;20035;-85
2021/12/22 02:27:35;;;;;;;132.33;46.63;;;-3275.60;72.30;;;;;;5138178;27;19912;-85
2021/12/22 02:30:05;;;;;;;149.27;50.90;;;-3275.60;72.10;;;;;;5105373;27;20020;-85
2021/12/22 02:33:06;;;;;;;143.90;51.77;;;-3275.60;72.10;;;;;;5102581;28;20437;-84
2021/12/22 02:35:52;;;;;;;132.90;48.43;;;-3275.70;72.20;;;;;;5116651;27;20491;-85
2021/12/22 02:38:18;;;;;;;156.07;51.47;;;-3275.70;72.20;;;;;;5123479;27;20031;-84
2021/12/22 02:40:47;;;;;;;151.00;54.50;;;-3275.70;72.20;;;;;;5099926;28;20047;-85
2021/12/22 02:43:19;;;;;;;128.43;47.43;;;-3275.70;72.20;;;;;;5105438;27;20031;-84
2021/12/22 02:45:45;;;;;;;72.33;28.03;;;-3275.70;72.30;;;;;;5118903;27;20121;-85
2021/12/22 02:48:13;;;;;;;;;;;-3275.70;72.30;;;;;;5102001;27;20028;-84
2021/12/22 02:50:40;;;;;;;59.90;25.20;;;-3275.70;72.40;;;;;;5100774;28;20277;-85
2021/12/22 02:53:13;;;;;;;133.83;51.63;;;-3275.70;72.20;;;;;;5106060;27;20016;-85
2021/12/22 02:58:20;;;;;;;146.47;50.60;;;-3275.60;72.50;;;;;;5124043;27;20037;-86
2021/12/22 03:05:59;;;;;;;315.20;104.77;;;-3275.60;72.80;;;;;;5125211;27;20046;-86
2021/12/22 03:08:24;;;;;;;114.67;41.97;;;-3275.50;72.80;;;;;;5099293;28;20024;-86
2021/12/22 03:10:53;;;;;;;;;;;-3275.60;72.90;;;;;;5093820;28;20047;-86
2021/12/22 03:13:20;;;;;;;134.23;48.93;;;-3275.50;72.90;;;;;;5126939;27;19918;-85
2021/12/22 03:15:46;;;;;;;140.00;53.10;;;-3275.60;72.70;;;;;;5106741;28;20027;-85
2021/12/22 03:18:11;;;;;;;;;;;-3275.50;72.90;;;;;;5111188;27;20139;-85
2021/12/22 03:20:37;;;;;;;138.57;46.40;;;-3275.60;73.00;;;;;;5107776;27;19912;-85
2021/12/22 03:23:04;;;;;;;;;;;-3275.50;73.00;;;;;;5111713;27;20049;-84
2021/12/22 03:25:30;;;;;;;68.20;28.42;;;-3275.50;73.00;;;;;;5106666;28;19937;-85
2021/12/22 03:28:01;;;;;;;123.57;48.08;;;-3275.50;72.90;;;;;;5112858;27;20107;-85
2021/12/22 03:30:27;;;;;;;118.57;45.77;;;-3275.50;73.20;;;;;;5106074;27;20463;-84
2021/12/22 03:32:52;;;;;;;;;;;-3275.60;73.30;;;;;;5101548;28;20034;-86
2021/12/22 03:35:20;;;;;;;78.57;31.73;;;-3275.50;73.40;;;;;;5099060;28;19908;-85
2021/12/22 03:37:50;;;;;;;61.27;21.50;;;-3275.50;73.30;;;;;;5097037;27;20062;-86
2021/12/22 03:40:17;;;;;;;67.20;28.10;;;-3275.40;73.60;;;;;;5102346;28;20032;-86
2021/12/22 03:42:43;;;;;;;66.43;27.10;;;-3275.30;73.90;;;;;;5103191;27;20053;-85
2021/12/22 03:45:08;;;;;;;;;;;-3275.30;74.30;;;;;;5099759;28;20031;-85
2021/12/22 03:47:34;;;;;;;110.97;35.63;;;-3275.30;74.50;;;;;;5103933;28;20292;-85
2021/12/22 03:50:00;;;;;;;;;;;-3275.30;74.40;;;;;;5105228;28;20027;-84
2021/12/22 03:52:25;;;;;;;84.37;30.73;;;-3275.30;74.40;;;;;;5102083;27;19908;-85
2021/12/22 03:54:57;;;;;;;;;;;-3275.40;74.30;;;;;;5096889;28;20020;-85
2021/12/22 03:57:27;;;;;;;127.47;43.23;;;-3275.40;74.30;;;;;;5108904;27;19915;-85
2021/12/22 03:59:53;;;;;;;86.60;35.17;;;-3275.50;74.10;;;;;;5121270;27;20405;-85
2021/12/22 04:02:20;;;;;;;;;;;-3275.50;74.10;;;;;;5115574;28;20085;-86
2021/12/22 04:04:48;;;;;;;112.50;43.73;;;-3275.60;74.20;;;;;;5098936;28;20333;-85
2021/12/22 04:07:14;;;;;;;142.23;46.50;;;-3275.60;74.20;;;;;;5128908;27;20383;-84
2021/12/22 04:09:42;;;;;;;124.57;43.30;;;-3275.70;74.20;;;;;;5106138;28;20422;-85
2021/12/22 04:12:08;;;;;;;127.63;41.30;;;-3275.70;74.20;;;;;;5105522;27;20054;-85
2021/12/22 04:14:36;;;;;;;;;;;-3275.70;74.30;;;;;;5106177;28;20012;-86
2021/12/22 04:17:02;;;;;;;128.80;45.17;;;-3275.70;74.30;;;;;;5105709;28;19907;-84
2021/12/22 04:19:28;;;;;;;96.00;36.63;;;-3275.70;74.10;;;;;;5099345;28;20017;-85
2021/12/22 04:21:53;;;;;;;;;;;-3275.80;74.20;;;;;;5100548;28;20016;-85
2021/12/22 04:24:20;;;;;;;116.33;40.80;;;-3275.80;74.30;;;;;;5101816;28;20295;-86
2021/12/22 04:26:45;;;;;;;;;;;-3275.90;74.10;;;;;;5085942;28;20015;-85
2021/12/22 04:29:12;;;;;;;126.87;44.43;;;-3275.90;74.20;;;;;;5097134;28;19938;-86
2021/12/22 04:31:38;;;;;;;68.60;26.30;;;-3275.90;74.00;;;;;;5098367;28;20062;-85
2021/12/22 04:34:08;;;;;;;135.97;51.03;;;-3275.90;74.10;;;;;;5098408;28;20468;-86
2021/12/22 04:36:40;;;;;;;143.87;52.50;;;-3275.90;74.20;;;;;;5093099;28;20103;-84
2021/12/22 04:39:08;;;;;;;140.97;52.83;;;-3275.90;74.20;;;;;;5096716;28;20027;-85
2021/12/22 04:41:33;;;;;;;117.37;43.33;;;-3275.90;74.20;;;;;;5103209;28;20020;-84
2021/12/22 04:43:59;;;;;;;;;;;-3276.00;74.20;;;;;;5104965;28;20670;-85
2021/12/22 04:46:25;;;;;;;131.33;46.40;;;-3276.00;74.20;;;;;;5095177;28;19912;-84
2021/12/22 04:48:50;;;;;;;;;;;-3276.00;73.90;;;;;;5109488;28;20027;-86
2021/12/22 04:51:31;;;;;;;124.87;44.17;;;-3276.10;74.00;;;;;;5108900;28;19915;-85
2021/12/22 04:54:42;;;;;;;125.33;43.40;;;-3276.10;73.70;;;;;;5094415;28;20077;-85
2021/12/22 04:56:51;;;;;;;132.23;47.10;;;-3276.20;73.80;;;;;;5126013;27;20080;-85
2021/12/22 04:59:16;;;;;;;;;;;-3276.20;73.80;;;;;;5113766;27;20463;-86
2021/12/22 05:01:42;;;;;;;126.37;45.47;;;-3276.20;73.90;;;;;;5104256;28;19970;-83
2021/12/22 05:04:07;;;;;;;;;;;-3276.20;73.60;;;;;;5098309;28;20407;-85
2021/12/22 05:06:34;;;;;;;126.43;42.43;;;-3276.20;73.70;;;;;;5116270;28;19916;-85
2021/12/22 05:08:59;;;;;;;136.87;43.63;;;-3276.30;73.40;;;;;;5107548;27;20021;-85
2021/12/22 05:11:25;;;;;;;;;;;-3276.30;73.50;;;;;;5101283;28;20086;-85
2021/12/22 05:13:50;;;;;;;124.10;40.73;;;-3276.30;73.60;;;;;;5106884;27;19908;-86
2021/12/22 05:16:17;;;;;;;142.70;41.42;;;-3276.30;73.40;;;;;;5117509;27;20016;-85
2021/12/22 05:21:15;;;;;;;132.33;42.63;;;-3276.30;73.50;;;;;;5115788;28;20035;-85
2021/12/22 05:23:41;;;;;;;;;;;-3276.30;73.50;;;;;;5105899;27;20457;-85
2021/12/22 05:26:06;;;;;;;107.60;37.13;;;-3276.20;73.60;;;;;;5104653;27;20379;-85
2021/12/22 05:28:32;;;;;;;91.80;29.48;;;-3276.20;73.40;;;;;;5107719;28;20031;-85
2021/12/22 05:30:57;;;;;;;123.72;37.72;;;-3276.20;73.50;;;;;;5106112;27;20392;-85
2021/12/22 05:33:23;;;;;;;;;;;-3276.10;73.60;;;;;;5108593;28;20032;-85
2021/12/22 05:35:48;;;;;;;95.33;36.10;;;-3276.10;73.70;;;;;;5092242;28;20511;-85
2021/12/22 05:38:14;;;;;;;;;;;-3276.10;73.50;;;;;;5099913;28;20507;-83
2021/12/22 05:40:40;;;;;;;106.17;33.40;;;-3276.00;73.70;;;;;;5101947;28;19918;-84
2021/12/22 05:43:06;;;;;;;119.90;40.47;;;-3275.90;73.60;;;;;;5105957;27;20398;-85
2021/12/22 05:45:31;;;;;;;;;;;-3275.80;73.80;;;;;;5101825;28;20031;-85
2021/12/22 05:47:57;;;;;;;94.00;35.13;;;-3275.70;74.00;;;;;;5124662;27;20413;-86
2021/12/22 05:50:23;;;;;;;;;;;-3275.70;73.90;;;;;;5105862;28;20045;-85
2021/12/22 05:52:49;;;;;;;122.57;38.67;;;-3275.70;74.10;;;;;;5108526;27;19907;-85
2021/12/22 05:55:15;;;;;;;109.07;35.43;;;-3275.70;73.90;;;;;;5100681;28;20383;-85
2021/12/22 05:57:40;;;;;;;;;;;-3275.60;74.00;;;;;;5124984;27;20032;-85
2021/12/22 06:00:07;;;;;;;111.20;36.93;;;-3275.50;74.10;;;;;;5104919;27;19907;-86
2021/12/22 06:02:34;;;;;;;94.33;29.13;;;-3275.50;74.00;;;;;;5112688;27;20061;-86
2021/12/22 06:05:00;;;;;;;127.43;40.07;;;-3275.50;74.10;;;;;;5119806;27;20031;-85
2021/12/22 06:07:25;;;;;;;;;;;-3275.40;74.20;;;;;;5109507;27;20165;-85
2021/12/22 06:09:51;;;;;;;86.07;27.70;;;-3275.40;74.30;;;;;;5102810;27;19914;-85
2021/12/22 06:12:16;;;;;;;;;;;-3275.40;74.20;;;;;;5105855;28;20424;-85
2021/12/22 06:14:42;;;;;;;97.90;36.73;;;-3275.50;74.30;;;;;;5099617;28;19995;-84
2021/12/22 06:17:08;;;;;;;;;;;-3275.50;74.10;;;;;;5098531;28;20016;-85
2021/12/22 06:19:33;;;;;;;116.87;38.20;;;-3275.50;74.10;;;;;;5106601;28;19907;-87
2021/12/22 06:21:59;;;;;;;;;;;-3275.60;73.90;;;;;;5105960;28;20019;-84
2021/12/22 06:24:25;;;;;;;126.37;41.23;;;-3275.60;74.00;;;;;;5097498;28;20364;-86
2021/12/22 06:26:51;;;;;;;;;;;-3275.60;73.80;;;;;;5097591;27;20076;-85
2021/12/22 06:29:16;;;;;;;110.77;39.87;;;-3275.60;73.90;;;;;;5104084;28;20001;-84
2021/12/22 06:31:42;;;;;;;;;;;-3275.60;73.80;;;;;;5105805;27;20027;-84
2021/12/22 06:34:07;;;;;;;126.97;38.67;;;-3275.60;74.00;;;;;;5097854;28;20683;-85
2021/12/22 06:36:33;;;;;;;124.20;41.45;;;-3275.50;73.80;;;;;;5099277;28;20023;-85
2021/12/22 06:38:59;;;;;;;;;;;-3275.50;74.00;;;;;;5097651;27;20035;-85
2021/12/22 06:41:24;;;;;;;133.77;46.80;;;-3275.50;74.10;;;;;;5106224;28;19975;-86
2021/12/22 06:43:50;;;;;;;;;;;-3275.60;73.90;;;;;;5102738;27;20467;-85
2021/12/22 06:46:15;;;;;;;136.23;44.77;;;-3275.60;74.00;;;;;;5107708;28;19912;-89
2021/12/22 06:48:44;;;;;;;;;;;-3275.60;73.80;;;;;;5097482;28;20111;-86
2021/12/22 06:51:10;;;;;;;123.13;46.17;;;-3275.70;73.90;;;;;;5103917;28;19911;-87
2021/12/22 06:53:38;;;;;;;;;;;-3275.70;73.70;;;;;;5094925;28;20027;-85
2021/12/22 06:56:04;;;;;;;143.33;50.03;;;-3275.70;73.80;;;;;;5103886;27;19919;-86
2021/12/22 06:58:30;;;;;;;;;;;-3275.60;73.70;;;;;;5097077;28;20027;-86
2021/12/22 07:00:55;;;;;;;128.50;44.43;;;-3275.60;73.80;;;;;;5099270;27;19908;-85
2021/12/22 07:03:25;;;;;;;139.43;47.23;;;-3275.60;73.70;;;;;;5129493;27;20034;-87
2021/12/22 07:05:51;;;;;;;;;;;-3275.70;73.80;;;;;;5100423;28;20028;-89
2021/12/22 07:08:17;;;;;;;128.70;44.50;;;-3275.70;73.90;;;;;;5098803;28;19912;-87
2021/12/22 07:10:42;;;;;;;;;;;-3275.70;73.70;;;;;;5099172;28;20034;-88
2021/12/22 07:13:09;;;;;;;136.73;45.53;;;-3275.70;73.80;;;;;;5111774;28;19908;-91
2021/12/22 07:15:35;;;;;;;118.67;42.20;;;-3275.70;73.70;;;;;;5101439;28;20027;-89
2021/12/22 07:18:02;;;;;;;;;;;-3275.70;73.80;;;;;;5105294;27;20071;-91
2021/12/22 07:20:27;;;;;;;118.25;43.83;;;-3275.70;73.90;;;;;;5115408;28;19915;-93
2021/12/22 07:22:53;;;;;;;;;;;-3275.80;73.70;;;;;;5115077;27;20020;-92
2021/12/22 07:25:23;;;;;;;157.53;53.43;;;-3275.80;73.80;;;;;;5110568;28;19963;-90
2021/12/22 07:27:49;;;;;;;176.47;60.37;;;-3275.80;73.60;;;;;;5103128;28;20039;-92
2021/12/22 07:30:15;;;;;;;165.63;57.27;;;-3275.90;73.70;;;;;;5109800;28;20027;-92
2021/12/22 07:32:41;;;;;;;158.83;58.47;;;-3275.90;73.70;;;;;;5110916;28;20032;-94
2021/12/22 07:35:07;;;;;;;;;;;-3275.90;73.80;;;;;;5102348;28;20011;-91
2021/12/22 07:37:41;;;;;;;137.70;47.17;;;-3276.00;73.90;;;;;;5114605;28;19904;-91
2021/12/22 07:40:10;;;;;;;173.10;53.67;;;-3276.00;73.60;;;;;;5085191;28;20099;-92
2021/12/22 07:42:36;;;;;;;161.30;50.23;;;-3276.00;73.60;;;;;;5102522;28;20118;-93
2021/12/22 07:45:01;;;;;;;;;;;-3276.10;73.70;;;;;;5105732;27;20532;-92
2021/12/22 07:47:27;;;;;;;144.63;48.73;;;-3276.10;73.80;;;;;;5122121;27;19965;-92
2021/12/22 07:49:52;;;;;;;;;;;-3276.20;73.50;;;;;;5121849;27;20079;-91
2021/12/22 07:52:18;;;;;;;153.63;48.67;;;-3276.20;73.60;;;;;;5101747;28;19915;-92
2021/12/22 07:54:44;;;;;;;136.35;46.30;;;-3276.20;73.30;;;;;;5101146;28;20123;-91
2021/12/22 07:57:10;;;;;;;;;;;-3276.20;73.40;;;;;;5104494;28;20027;-92
2021/12/22 07:59:35;;;;;;;137.73;44.73;;;-3276.30;73.50;;;;;;5103548;27;19915;-88
2021/12/22 08:02:01;;;;;;;;;;;-3276.30;73.30;;;;;;5092817;27;20054;-89
2021/12/22 08:04:28;;;;;;;140.80;45.90;;;-3276.30;73.40;;;;;;5100873;28;19907;-90
2021/12/22 08:06:54;;;;;;;141.13;48.20;;;-3276.40;73.30;;;;;;5089592;28;20092;-89
2021/12/22 08:09:25;;;;;;;;;;;-3276.40;73.30;;;;;;5104009;28;20109;-89
2021/12/22 08:11:52;;;;;;;129.30;43.90;;;-3276.40;73.40;;;;;;5104370;27;19908;-87
2021/12/22 08:14:18;;;;;;;126.53;43.90;;;-3276.50;73.20;;;;;;5108608;28;20059;-85
2021/12/22 08:16:43;;;;;;;;;;;-3276.50;73.20;;;;;;5128624;27;20027;-91
2021/12/22 08:19:09;;;;;;;129.40;44.93;;;-3276.60;73.30;;;;;;5111394;28;19908;-93
2021/12/22 08:21:34;;;;;;;120.05;43.92;;;-3276.60;73.10;;;;;;5096673;28;20059;-92
2021/12/22 08:24:00;;;;;;;97.63;36.47;;;-3276.70;73.10;;;;;;5098887;28;20027;-94
2021/12/22 08:26:25;;;;;;;131.15;46.58;;;-3276.70;73.10;;;;;;5101910;28;20396;-95
2021/12/22 08:28:51;;;;;;;127.55;45.95;;;-3276.70;73.10;;;;;;5106314;28;20499;-92
2021/12/22 08:31:17;;;;;;;;;;;0.00;73.00;;;;;;5106972;28;20555;-93
2021/12/22 08:33:45;;;;;;;90.93;33.60;;;0.00;73.00;;;;;;5106989;28;19907;-93
2021/12/22 08:38:58;;;;;;;113.07;38.63;;;0.20;72.70;;;;;;5126220;27;20031;-94
2021/12/22 08:41:31;;;;;;;103.53;35.90;;;0.30;72.60;;;;;;5125580;27;20467;-94
2021/12/22 08:44:04;;;;;;;94.53;33.47;;;0.30;72.50;;;;;;5126411;27;20046;-92
2021/12/22 08:46:32;;;;;;;92.77;34.13;;;0.50;72.50;;;;;;5126814;27;20074;-93
2021/12/22 08:48:57;;;;;;;75.80;29.40;;;0.60;72.30;;;;;;5125685;27;20084;-92
2021/12/22 08:51:23;;;;;;;;;;;0.60;72.20;;;;;;5128000;27;20047;-93
2021/12/22 08:53:49;;;;;;;70.30;26.17;;;0.70;72.10;;;;;;5126202;27;19918;-94
2021/12/22 08:56:15;;;;;;;77.18;30.50;;;0.80;71.80;;;;;;5125519;27;20030;-95
2021/12/22 08:58:40;;;;;;;;;;;0.80;71.80;;;;;;5125809;27;20022;-94
2021/12/22 09:01:06;;;;;;;61.30;23.97;;;0.90;71.70;;;;;;5130404;27;19910;-94
2021/12/22 09:03:33;;;;;;;80.53;31.20;;;1.00;71.40;;;;;;5102864;28;20050;-93
2021/12/22 09:05:58;;;;;;;;;;;1.00;71.40;;;;;;5103859;28;20388;-93
2021/12/22 09:08:24;;;;;;;76.03;29.60;;;1.10;71.40;;;;;;5103804;28;19914;-94
2021/12/22 09:10:50;;;;;;;;;;;1.10;71.10;;;;;;5104745;28;20027;-92
2021/12/22 09:13:17;;;;;;;82.17;29.93;;;1.20;71.00;;;;;;5104770;28;19904;-93
2021/12/22 09:15:42;;;;;;;71.87;26.03;;;1.30;70.80;;;;;;5108255;27;20024;-94
2021/12/22 09:18:07;;;;;;;;;;;1.30;70.90;;;;;;5122064;27;20027;-89
2021/12/22 09:20:33;;;;;;;79.33;31.40;;;1.30;70.80;;;;;;5111543;28;19961;-90
2021/12/22 09:22:59;;;;;;;;;;;1.30;70.60;;;;;;5127740;27;20559;-87
2021/12/22 09:25:24;;;;;;;66.60;25.37;;;1.30;70.70;;;;;;5122175;27;20367;-89
2021/12/22 09:27:50;;;;;;;60.35;24.95;;;1.30;70.50;;;;;;5102221;28;20027;-89
2021/12/22 09:30:16;;;;;;;;;;;1.30;70.60;;;;;;5102549;28;20023;-88
2021/12/22 09:32:42;;;;;;;50.00;20.23;;;1.30;70.60;;;;;;5128619;27;19907;-89
2021/12/22 09:35:08;;;;;;;;;;;1.30;70.30;;;;;;5123791;27;20149;-89
2021/12/22 09:37:33;;;;;;;57.50;21.17;;;1.10;70.30;;;;;;5122366;27;19911;-88
2021/12/22 09:39:59;;;;;;;59.50;24.05;;;1.10;70.30;;;;;;5122628;27;20023;-88
2021/12/22 09:42:24;;;;;;;;;;;0.90;70.40;;;;;;5123303;27;20015;-88
2021/12/22 09:44:51;;;;;;;46.87;19.50;;;0.80;70.60;;;;;;5105893;28;19961;-89
2021/12/22 09:47:25;;;;;;;;;;;0.80;70.50;;;;;;5102513;28;20515;-89
2021/12/22 09:52:27;;;;;;;49.53;20.00;;;0.60;70.60;;;;;;5119575;28;20093;-88
2021/12/22 09:54:56;;;;;;;56.67;19.40;;;0.50;70.80;;;;;;5101999;28;20051;-88
2021/12/22 09:57:23;;;;;;;52.23;19.93;;;0.40;71.00;;;;;;5102446;28;20110;-89
2021/12/22 09:59:51;;;;;;;58.73;21.57;;;0.30;71.00;;;;;;5102610;28;20072;-90
2021/12/22 10:02:19;;;;;;;54.80;19.87;;;0.40;71.00;;;;;;5102634;28;20510;-90
2021/12/22 10:04:45;;;;;;;48.97;19.53;;;0.60;70.80;;;;;;5101721;28;20095;-89
2021/12/22 10:07:25;;;;;;;42.27;18.47;;;1.00;70.30;;;;;;5103087;28;20487;-89
2021/12/22 10:09:52;;;;;;;51.63;20.07;;;1.70;69.50;;;;;;5102948;28;20020;-91
2021/12/22 10:12:24;;;;;;;54.10;22.47;;;2.40;68.10;;;;;;5103208;28;20095;-89
2021/12/22 10:14:58;;;;;;;44.13;18.80;;;3.40;66.70;;;;;;5101834;28;20024;-90
2021/12/22 10:17:42;;;;;;;42.40;18.27;;;4.40;65.30;;;;;;5122063;28;20024;-89
2021/12/22 10:20:13;;;;;;;47.33;20.17;;;5.30;63.60;;;;;;5102795;28;20031;-89
2021/12/22 10:22:45;;;;;;;39.37;18.77;;;6.10;62.40;;;;;;5102894;28;20107;-89
2021/12/22 10:25:23;;;;;;;41.00;19.13;;;6.80;61.20;;;;;;5101812;28;20023;-90
2021/12/22 10:28:01;;;;;;;41.13;18.40;;;7.50;60.10;;;;;;5101514;28;20020;-90
2021/12/22 10:30:37;;;;;;;40.15;21.08;;;8.00;58.40;;;;;;5101692;28;20112;-90
2021/12/22 10:33:12;;;;;;;41.03;19.77;;;8.30;58.10;;;;;;5119732;27;20031;-90
2021/12/22 10:35:40;;;;;;;47.17;19.67;;;8.40;57.40;;;;;;5100951;28;20051;-88
2021/12/22 10:38:09;;;;;;;36.60;18.17;;;8.30;57.00;;;;;;5119257;28;20020;-90
2021/12/22 10:40:36;;;;;;;32.58;17.80;;;8.50;56.50;;;;;;5101978;28;20102;-90
2021/12/22 10:43:05;;;;;;;40.10;18.50;;;8.30;55.70;;;;;;5119579;27;20098;-90
2021/12/22 10:45:34;;;;;;;34.30;16.85;;;7.70;55.80;;;;;;5121965;27;20072;-89
2021/12/22 10:50:53;;;;;;;35.28;16.35;;;7.40;55.20;;;;;;5141951;27;20532;-90
2021/12/22 10:53:19;;;;;;;37.03;16.48;;;7.70;54.70;;;;;;5121938;27;20493;-90
2021/12/22 10:55:45;;;;;;;;;;;7.70;54.70;;;;;;5122433;27;20110;-90
2021/12/22 10:58:19;;;;;;;28.55;12.95;;;7.50;54.60;;;;;;5122282;27;19904;-91
2021/12/22 11:01:08;;;;;;;28.10;12.15;;;7.20;54.80;;;;;;5102097;28;20104;-91
2021/12/22 11:03:43;;;;;;;29.67;12.85;;;6.80;54.80;;;;;;5100734;28;20043;-90
2021/12/22 11:06:25;;;;;;;35.35;14.80;;;6.60;55.20;;;;;;5100600;28;20035;-90
2021/12/22 11:08:59;;;;;;;34.05;13.85;;;6.20;55.10;;;;;;5100612;28;20110;-90
2021/12/22 11:11:37;;;;;;;23.13;12.10;;;5.90;55.40;;;;;;5101189;28;20024;-90
2021/12/22 11:14:11;;;;;;;34.10;13.47;;;5.60;55.00;;;;;;5100583;28;20543;-90
2021/12/22 11:16:52;;;;;;;30.53;13.60;;;5.30;54.90;;;;;;5100965;28;20019;-91
2021/12/22 11:19:17;;;;;;;26.83;10.50;;;5.00;53.70;;;;;;5101213;28;20023;-91
2021/12/22 11:22:00;;;;;;;;;;;4.70;54.30;;;;;;5101090;28;20075;-90
2021/12/22 11:24:27;;;;;;;14.57;7.53;;;4.50;54.70;;;;;;5103821;28;19907;-89
2021/12/22 11:26:53;;;;;;;17.63;7.50;;;4.40;54.30;;;;;;5120405;27;20539;-89
2021/12/22 11:29:19;;;;;;;;;;;4.30;53.80;;;;;;5124463;27;20119;-89
2021/12/22 11:31:53;;;;;;;15.33;7.33;;;4.20;53.50;;;;;;5106859;28;19908;-90
2021/12/22 11:34:21;;;;;;;20.67;9.67;;;4.30;53.30;;;;;;5101803;28;20031;-89
2021/12/22 11:36:48;;;;;;;20.20;9.13;;;4.20;53.20;;;;;;5100713;28;20480;-89
2021/12/22 11:39:14;;;;;;;23.70;9.43;;;3.90;53.50;;;;;;5099900;28;20034;-90
2021/12/22 11:41:53;;;;;;;;;;;3.70;54.00;;;;;;5118431;28;20028;-90
2021/12/22 11:44:19;;;;;;;20.87;8.60;;;3.50;54.40;;;;;;5099748;28;19910;-90
2021/12/22 11:46:46;;;;;;;;;;;3.30;54.60;;;;;;5099929;28;20416;-89
2021/12/22 11:49:11;;;;;;;17.10;6.68;;;3.10;54.90;;;;;;5100668;28;19911;-89
2021/12/22 11:51:37;;;;;;;23.83;9.48;;;2.90;55.10;;;;;;5119306;28;20107;-92
2021/12/22 11:54:09;;;;;;;20.02;8.98;;;2.80;55.50;;;;;;5100831;28;20060;-91
2021/12/22 11:56:40;;;;;;;32.50;14.13;;;2.80;55.80;;;;;;5118437;28;20026;-90
2021/12/22 11:59:23;;;;;;;31.47;12.80;;;2.70;56.00;;;;;;5101078;28;20495;-91
2021/12/22 12:02:26;;;;;;;26.10;11.70;;;2.80;56.20;;;;;;5100053;28;20027;-90
2021/12/22 12:05:16;;;;;;;24.83;11.40;;;2.80;56.00;;;;;;5101432;28;20027;-92
2021/12/22 12:08:30;;;;;;;23.93;11.63;;;2.90;56.10;;;;;;5105464;28;20024;-90
2021/12/22 12:10:58;;;;;;;25.30;11.03;;;2.90;56.20;;;;;;5100307;28;20023;-89
2021/12/22 12:13:25;;;;;;;31.37;11.90;;;2.90;56.30;;;;;;5101338;28;20103;-90
2021/12/22 12:22:34;;;;;;;17.87;9.13;;;3.00;56.30;;;;;;5127857;28;20037;-92
2021/12/22 12:25:05;;;;;;;11.32;4.97;;;3.00;55.90;;;;;;5106532;28;20028;-92
2021/12/22 12:27:50;;;;;;;14.50;7.37;;;2.80;55.70;;;;;;5101773;28;20036;-90
2021/12/22 12:30:19;;;;;;;17.10;8.60;;;2.60;55.40;;;;;;5103036;28;20100;-91
2021/12/22 12:32:50;;;;;;;18.53;9.50;;;2.40;55.60;;;;;;5099747;28;20027;-89
2021/12/22 12:35:23;;;;;;;21.73;11.43;;;2.30;56.00;;;;;;5130549;28;20131;-93
2021/12/22 12:38:05;;;;;;;31.63;15.77;;;2.20;56.40;;;;;;5113384;28;20031;-91
2021/12/22 12:41:06;;;;;;;6.53;4.03;;;2.20;56.70;;;;;;5109101;28;20051;-91
2021/12/22 12:43:53;;;;;;;22.60;9.10;;;2.20;56.70;;;;;;5109300;28;20042;-92
2021/12/22 12:46:19;;;;;;;20.83;9.67;;;2.20;57.00;;;;;;5097833;28;20040;-91
2021/12/22 12:48:49;;;;;;;;;;;2.00;57.10;;;;;;5096763;28;20028;-90
2021/12/22 12:51:18;;;;;;;14.93;5.73;;;2.00;57.30;;;;;;5098866;28;19914;-92
2021/12/22 12:53:49;;;;;;;10.93;5.17;;;1.90;57.40;;;;;;5103942;28;20016;-91
2021/12/22 12:56:17;;;;;;;9.13;4.10;;;1.80;57.70;;;;;;5106283;28;20019;-92
2021/12/22 12:58:53;;;;;;;8.47;3.57;;;1.80;58.00;;;;;;5104520;28;20028;-92
2021/12/22 13:01:38;;;;;;;10.70;3.55;;;1.70;58.20;;;;;;5100922;28;20051;-91
2021/12/22 13:04:18;;;;;;;7.50;3.00;;;1.70;58.20;;;;;;5100047;28;20040;-90
2021/12/22 13:06:45;;;;;;;8.83;3.40;;;1.70;58.20;;;;;;5102259;28;20024;-91
2021/12/22 13:09:22;;;;;;;9.13;4.10;;;1.80;58.20;;;;;;5099668;28;20036;-91